createdAt,value
2023-03-03T00:00:04.219Z,89.56
2023-03-03T00:02:35.004Z,89.28
2023-03-03T00:05:07.008Z,89.31
2023-03-03T00:07:37.478Z,89.86
2023-03-03T00:10:09.949Z,89.60
2023-03-03T00:12:49.575Z,89.55
2023-03-03T00:15:23.413Z,89.82
2023-03-03T00:17:54.311Z,89.96
2023-03-03T00:20:36.325Z,90.12
2023-03-03T00:23:27.434Z,89.87
2023-03-03T00:25:59.399Z,89.92
2023-03-03T00:28:32.396Z,90.05
2023-03-03T00:31:13.689Z,89.73
2023-03-03T00:33:50.572Z,89.31
2023-03-03T00:36:38.987Z,89.53
2023-03-03T00:39:22.482Z,89.42
2023-03-03T00:41:53.274Z,89.51
2023-03-03T00:44:43.997Z,89.70
2023-03-03T00:47:32.391Z,89.63
2023-03-03T00:50:30.582Z,89.87
2023-03-03T00:53:17.018Z,89.96
2023-03-03T00:55:49.147Z,89.81
2023-03-03T00:58:21.684Z,90.09
2023-03-03T01:00:53.875Z,90.08
2023-03-03T01:03:26.073Z,90.32
2023-03-03T01:05:56.896Z,90.44
2023-03-03T01:08:27.658Z,90.92
2023-03-03T01:11:00.841Z,90.59
2023-03-03T01:13:36.177Z,90.54
2023-03-03T01:16:09.806Z,90.64
2023-03-03T01:18:41.745Z,90.49
2023-03-03T01:21:12.569Z,90.44
2023-03-03T01:23:42.948Z,90.42
2023-03-03T01:26:13.338Z,90.65
2023-03-03T01:28:43.664Z,90.01
2023-03-03T01:31:14.320Z,90.04
2023-03-03T01:33:44.778Z,89.89
2023-03-03T01:36:15.517Z,89.94
2023-03-03T01:38:45.867Z,89.74
2023-03-03T01:41:16.585Z,89.63
2023-03-03T01:43:49.797Z,89.53
2023-03-03T01:46:41.947Z,89.43
2023-03-03T01:49:17.966Z,89.53
2023-03-03T01:51:52.995Z,89.81
2023-03-03T01:54:28.966Z,89.64
2023-03-03T01:57:04.242Z,89.99
2023-03-03T01:59:38.969Z,89.78
2023-03-03T02:02:10.529Z,90.05
2023-03-03T02:04:41.700Z,89.91
2023-03-03T02:07:13.371Z,90.26
2023-03-03T02:09:52.036Z,90.19
2023-03-03T02:12:29.504Z,90.51
2023-03-03T02:15:00.280Z,90.19
2023-03-03T02:17:30.998Z,90.17
2023-03-03T02:20:08.080Z,90.10
2023-03-03T02:22:45.666Z,90.17
2023-03-03T02:25:23.790Z,90.49
2023-03-03T02:27:54.325Z,90.32
2023-03-03T02:30:26.150Z,90.27
2023-03-03T02:32:56.489Z,90.35
2023-03-03T02:35:34.611Z,90.32
2023-03-03T02:38:18.954Z,90.32
2023-03-03T02:41:00.031Z,90.16
2023-03-03T02:43:40.891Z,90.12
2023-03-03T02:46:11.237Z,90.27
2023-03-03T02:48:41.805Z,90.26
2023-03-03T02:51:12.278Z,90.14
2023-03-03T02:53:42.804Z,89.89
2023-03-03T02:56:13.138Z,89.95
2023-03-03T02:58:43.475Z,90.04
2023-03-03T03:01:14.321Z,89.69
2023-03-03T03:03:44.892Z,89.99
2023-03-03T03:06:16.040Z,89.83
2023-03-03T03:08:46.287Z,89.52
2023-03-03T03:11:16.845Z,89.56
2023-03-03T03:13:47.119Z,89.31
2023-03-03T03:16:17.406Z,89.21
2023-03-03T03:18:47.713Z,89.35
2023-03-03T03:21:18.419Z,89.21
2023-03-03T03:23:48.773Z,89.35
2023-03-03T03:26:21.054Z,89.49
2023-03-03T03:28:52.398Z,89.28
2023-03-03T03:31:23.581Z,89.30
2023-03-03T03:33:54.232Z,89.46
2023-03-03T03:36:24.514Z,89.35
2023-03-03T03:38:54.818Z,89.59
2023-03-03T03:41:25.140Z,89.36
2023-03-03T03:43:55.389Z,89.50
2023-03-03T03:46:25.772Z,89.29
2023-03-03T03:48:56.019Z,89.56
2023-03-03T03:51:26.420Z,89.58
2023-03-03T03:53:56.702Z,89.32
2023-03-03T03:56:27.120Z,89.32
2023-03-03T03:58:57.422Z,89.45
2023-03-03T04:01:28.212Z,89.42
2023-03-03T04:03:58.941Z,89.19
2023-03-03T04:06:29.316Z,89.13
2023-03-03T04:08:59.737Z,89.17
2023-03-03T04:11:30.338Z,89.47
2023-03-03T04:14:00.643Z,89.28
2023-03-03T04:16:31.016Z,89.38
2023-03-03T04:19:01.699Z,89.20
2023-03-03T04:21:32.353Z,89.11
2023-03-03T04:24:02.660Z,89.07
2023-03-03T04:26:33.544Z,88.96
2023-03-03T04:29:03.842Z,88.74
2023-03-03T04:31:34.214Z,88.84
2023-03-03T04:34:04.669Z,88.99
2023-03-03T04:36:35.037Z,89.33
2023-03-03T04:39:05.855Z,89.29
2023-03-03T04:41:37.096Z,89.49
2023-03-03T04:44:07.698Z,89.56
2023-03-03T04:46:38.288Z,89.36
2023-03-03T04:49:11.395Z,89.18
2023-03-03T04:51:43.078Z,89.05
2023-03-03T04:54:13.460Z,89.12
2023-03-03T04:56:43.830Z,89.51
2023-03-03T04:59:15.298Z,89.53
2023-03-03T05:01:46.483Z,89.61
2023-03-03T05:04:16.922Z,89.78
2023-03-03T05:06:47.571Z,89.85
2023-03-03T05:09:18.050Z,89.53
2023-03-03T05:11:48.558Z,89.46
2023-03-03T05:14:19.508Z,89.30
2023-03-03T05:16:49.862Z,89.21
2023-03-03T05:19:20.590Z,89.19
2023-03-03T05:21:51.679Z,89.17
2023-03-03T05:24:22.039Z,89.15
2023-03-03T05:26:52.727Z,89.35
2023-03-03T05:29:23.100Z,89.26
2023-03-03T05:31:53.501Z,88.84
2023-03-03T05:34:24.629Z,88.80
2023-03-03T05:36:54.967Z,88.88
2023-03-03T05:39:25.484Z,88.80
2023-03-03T05:41:56.923Z,88.73
2023-03-03T05:44:27.310Z,88.71
2023-03-03T05:46:59.019Z,89.12
2023-03-03T05:49:29.726Z,89.16
2023-03-03T05:52:01.027Z,88.77
2023-03-03T05:54:31.976Z,88.72
2023-03-03T05:57:02.315Z,88.46
2023-03-03T05:59:32.896Z,88.60
2023-03-03T06:02:04.070Z,88.12
2023-03-03T06:04:35.361Z,87.95
2023-03-03T06:07:09.090Z,87.85
2023-03-03T06:09:42.216Z,87.64
2023-03-03T06:12:12.742Z,87.56
2023-03-03T06:14:43.572Z,87.67
2023-03-03T06:17:14.483Z,87.32
2023-03-03T06:19:45.243Z,87.07
2023-03-03T06:22:16.088Z,87.03
2023-03-03T06:24:46.798Z,86.94
2023-03-03T06:27:17.694Z,87.11
2023-03-03T06:29:48.326Z,87.11
2023-03-03T06:32:19.053Z,87.32
2023-03-03T06:34:49.530Z,87.18
2023-03-03T06:37:20.188Z,87.39
2023-03-03T06:39:52.533Z,87.47
2023-03-03T06:42:24.796Z,87.53
2023-03-03T06:44:55.512Z,87.40
2023-03-03T06:47:25.884Z,87.15
2023-03-03T06:49:56.399Z,87.42
2023-03-03T06:52:28.877Z,87.19
2023-03-03T06:55:01.954Z,87.47
2023-03-03T06:57:33.668Z,87.39
2023-03-03T07:00:25.248Z,87.44
2023-03-03T07:03:03.293Z,87.31
2023-03-03T07:05:35.077Z,87.36
2023-03-03T07:08:14.348Z,87.46
2023-03-03T07:10:46.218Z,87.28
2023-03-03T07:13:27.794Z,87.25
2023-03-03T07:16:01.804Z,87.02
2023-03-03T07:18:40.540Z,87.27
2023-03-03T07:21:18.292Z,87.21
2023-03-03T07:23:50.629Z,87.23
2023-03-03T07:26:23.868Z,86.99
2023-03-03T07:28:58.905Z,86.98
2023-03-03T07:31:39.262Z,87.17
2023-03-03T07:34:20.994Z,87.15
2023-03-03T07:36:54.505Z,87.32
2023-03-03T07:39:32.075Z,87.28
2023-03-03T07:42:22.190Z,86.95
2023-03-03T07:44:54.849Z,87.07
2023-03-03T07:47:27.706Z,87.02
2023-03-03T07:50:01.147Z,87.39
2023-03-03T07:52:40.651Z,87.23
2023-03-03T07:55:28.214Z,87.02
2023-03-03T07:58:16.547Z,86.74
2023-03-03T08:01:30.043Z,86.91
2023-03-03T08:04:01.274Z,87.17
2023-03-03T08:06:49.490Z,87.09
2023-03-03T08:09:44.249Z,86.61
2023-03-03T08:12:41.827Z,86.80
2023-03-03T08:15:16.283Z,87.11
2023-03-03T08:17:47.998Z,87.10
2023-03-03T08:20:51.038Z,87.06
2023-03-03T08:23:23.188Z,87.09
2023-03-03T08:25:54.920Z,86.82
2023-03-03T08:28:25.693Z,86.45
2023-03-03T08:31:09.121Z,86.41
2023-03-03T08:33:46.137Z,86.59
2023-03-03T08:36:16.939Z,86.45
2023-03-03T08:38:47.345Z,86.43
2023-03-03T08:41:18.074Z,86.19
2023-03-03T08:43:48.886Z,86.16
2023-03-03T08:46:19.598Z,86.28
2023-03-03T08:48:50.442Z,86.51
2023-03-03T08:51:21.085Z,86.49
2023-03-03T08:53:52.117Z,86.58
2023-03-03T08:56:22.472Z,86.25
2023-03-03T08:59:02.121Z,86.54
2023-03-03T09:01:34.195Z,86.81
2023-03-03T09:04:04.617Z,86.27
2023-03-03T09:06:34.913Z,86.29
2023-03-03T09:09:06.206Z,86.39
2023-03-03T09:11:37.627Z,86.21
2023-03-03T09:14:14.579Z,85.93
2023-03-03T09:16:54.729Z,85.95
2023-03-03T09:19:29.407Z,86.21
2023-03-03T09:22:04.342Z,86.05
2023-03-03T09:24:38.512Z,85.82
2023-03-03T09:27:16.319Z,85.96
2023-03-03T09:29:47.046Z,85.55
2023-03-03T09:32:31.225Z,85.05
2023-03-03T09:35:08.335Z,84.97
2023-03-03T09:37:40.442Z,84.77
2023-03-03T09:40:42.585Z,84.33
2023-03-03T09:43:24.094Z,84.38
2023-03-03T09:46:04.987Z,84.40
2023-03-03T09:49:04.673Z,84.10
2023-03-03T09:52:13.831Z,84.31
2023-03-03T09:54:57.768Z,83.75
2023-03-03T09:57:37.314Z,84.10
2023-03-03T10:00:28.118Z,83.68
2023-03-03T10:03:34.321Z,83.55
2023-03-03T10:06:11.868Z,83.48
2023-03-03T10:08:55.716Z,83.32
2023-03-03T10:11:30.223Z,83.23
2023-03-03T10:14:15.123Z,83.56
2023-03-03T10:17:00.275Z,83.52
2023-03-03T10:19:40.784Z,83.17
2023-03-03T10:22:21.073Z,83.14
2023-03-03T10:25:05.637Z,82.82
2023-03-03T10:27:59.425Z,82.60
2023-03-03T10:30:58.096Z,82.30
2023-03-03T10:33:39.022Z,81.96
2023-03-03T10:36:30.641Z,81.99
2023-03-03T10:39:18.543Z,82.03
2023-03-03T10:42:04.521Z,81.91
2023-03-03T10:44:54.304Z,81.79
2023-03-03T10:47:47.069Z,81.81
2023-03-03T10:50:25.103Z,80.91
2023-03-03T10:52:56.303Z,80.70
2023-03-03T10:55:39.380Z,80.75
2023-03-03T10:58:24.442Z,80.76
2023-03-03T11:01:03.973Z,80.47
2023-03-03T11:03:51.798Z,80.53
2023-03-03T11:06:23.276Z,80.71
2023-03-03T11:08:57.756Z,80.83
2023-03-03T11:11:42.545Z,80.49
2023-03-03T11:14:22.986Z,80.63
2023-03-03T11:17:02.557Z,80.11
2023-03-03T11:20:00.913Z,79.97
2023-03-03T11:22:43.615Z,79.45
2023-03-03T11:25:27.189Z,79.67
2023-03-03T11:28:30.029Z,79.73
2023-03-03T11:31:14.638Z,79.73
2023-03-03T11:33:55.456Z,79.93
2023-03-03T11:36:34.990Z,79.78
2023-03-03T11:39:09.930Z,79.47
2023-03-03T11:41:43.330Z,79.51
2023-03-03T11:44:23.302Z,79.74
2023-03-03T11:46:59.673Z,79.02
2023-03-03T11:49:35.790Z,78.97
2023-03-03T11:52:23.136Z,79.13
2023-03-03T11:55:01.344Z,79.11
2023-03-03T11:57:37.798Z,78.82
2023-03-03T12:00:22.119Z,78.71
2023-03-03T12:03:11.051Z,78.56
2023-03-03T12:06:01.385Z,78.34
2023-03-03T12:08:47.185Z,78.21
2023-03-03T12:11:24.063Z,77.54
2023-03-03T12:14:01.978Z,77.40
2023-03-03T12:16:43.664Z,77.66
2023-03-03T12:19:25.273Z,77.98
2023-03-03T12:22:16.318Z,78.00
2023-03-03T12:24:58.569Z,78.24
2023-03-03T12:27:39.255Z,78.22
2023-03-03T12:30:25.317Z,78.05
2023-03-03T12:33:08.459Z,77.78
2023-03-03T12:35:51.393Z,77.78
2023-03-03T12:38:31.535Z,77.60
2023-03-03T12:41:09.304Z,77.29
2023-03-03T12:43:53.101Z,77.35
2023-03-03T12:46:33.700Z,77.40
2023-03-03T12:49:04.478Z,77.59
2023-03-03T12:51:43.824Z,77.21
2023-03-03T12:54:42.807Z,77.11
2023-03-03T12:57:23.271Z,76.50
2023-03-03T13:00:15.974Z,76.63
2023-03-03T13:02:56.276Z,76.91
2023-03-03T13:05:35.148Z,77.32
2023-03-03T13:08:31.256Z,77.03
2023-03-03T13:11:16.198Z,76.90
2023-03-03T13:13:53.538Z,76.36
2023-03-03T13:16:40.791Z,76.19
2023-03-03T13:19:17.686Z,75.83
2023-03-03T13:21:54.569Z,75.86
2023-03-03T13:24:34.115Z,75.76
2023-03-03T13:27:09.423Z,75.95
2023-03-03T13:29:45.132Z,75.82
2023-03-03T13:32:23.260Z,76.13
2023-03-03T13:35:00.801Z,76.09
2023-03-03T13:37:36.711Z,76.44
2023-03-03T13:40:17.559Z,76.01
2023-03-03T13:42:53.989Z,75.82
2023-03-03T13:45:28.658Z,76.04
2023-03-03T13:48:07.880Z,76.37
2023-03-03T13:50:45.900Z,76.29
2023-03-03T13:53:35.553Z,75.45
2023-03-03T13:56:19.923Z,75.65
2023-03-03T13:59:00.285Z,75.53
2023-03-03T14:01:43.295Z,75.51
2023-03-03T14:04:20.505Z,75.40
2023-03-03T14:06:56.652Z,75.60
2023-03-03T14:09:43.956Z,75.23
2023-03-03T14:12:23.435Z,75.15
2023-03-03T14:15:04.112Z,75.78
2023-03-03T14:17:44.476Z,75.97
2023-03-03T14:20:23.517Z,75.44
2023-03-03T14:22:57.993Z,75.29
2023-03-03T14:25:28.753Z,75.12
2023-03-03T14:28:12.642Z,75.58
2023-03-03T14:30:44.026Z,75.69
2023-03-03T14:33:26.217Z,75.40
2023-03-03T14:36:12.368Z,75.31
2023-03-03T14:38:48.325Z,75.30
2023-03-03T14:41:22.862Z,74.55
2023-03-03T14:44:03.615Z,74.68
2023-03-03T14:46:37.466Z,74.68
2023-03-03T14:49:15.534Z,74.63
2023-03-03T14:51:48.038Z,74.90
2023-03-03T14:54:25.504Z,74.82
2023-03-03T14:57:08.253Z,74.66
2023-03-03T14:59:39.354Z,74.24
2023-03-03T15:02:36.282Z,74.76
2023-03-03T15:05:24.436Z,74.69
2023-03-03T15:07:57.477Z,74.85
2023-03-03T15:10:34.586Z,74.90
2023-03-03T15:13:27.125Z,74.65
2023-03-03T15:16:12.589Z,74.61
2023-03-03T15:19:16.223Z,74.62
2023-03-03T15:21:56.749Z,74.59
2023-03-03T15:24:36.289Z,74.43
2023-03-03T15:27:13.446Z,74.51
2023-03-03T15:30:02.007Z,74.73
2023-03-03T15:32:41.606Z,75.07
2023-03-03T15:35:26.472Z,75.08
2023-03-03T15:38:04.043Z,75.23
2023-03-03T15:40:40.465Z,75.22
2023-03-03T15:43:21.338Z,75.35
2023-03-03T15:45:58.200Z,75.62
2023-03-03T15:48:42.258Z,75.67
2023-03-03T15:51:21.227Z,75.77
2023-03-03T15:54:14.747Z,75.65
2023-03-03T15:56:51.750Z,75.62
2023-03-03T15:59:43.578Z,75.74
2023-03-03T16:02:19.687Z,76.08
2023-03-03T16:05:01.273Z,76.26
2023-03-03T16:07:49.859Z,76.20
2023-03-03T16:10:30.119Z,76.31
2023-03-03T16:13:12.138Z,76.38
2023-03-03T16:15:53.558Z,76.53
2023-03-03T16:18:39.101Z,76.66
2023-03-03T16:21:26.485Z,76.90
2023-03-03T16:24:01.038Z,76.75
2023-03-03T16:26:44.350Z,76.63
2023-03-03T16:29:34.389Z,76.93
2023-03-03T16:32:12.994Z,76.91
2023-03-03T16:34:56.623Z,76.76
2023-03-03T16:37:32.669Z,76.83
2023-03-03T16:40:15.788Z,76.77
2023-03-03T16:42:48.725Z,76.83
2023-03-03T16:45:28.716Z,76.92
2023-03-03T16:48:25.411Z,77.03
2023-03-03T16:51:07.778Z,77.24
2023-03-03T16:53:55.101Z,77.25
2023-03-03T16:56:30.250Z,77.34
2023-03-03T16:59:28.480Z,77.78
2023-03-03T17:02:11.753Z,77.58
2023-03-03T17:04:46.946Z,77.69
2023-03-03T17:07:34.530Z,78.01
2023-03-03T17:10:23.974Z,78.01
2023-03-03T17:13:16.622Z,77.97
2023-03-03T17:15:59.533Z,78.33
2023-03-03T17:18:41.342Z,78.58
2023-03-03T17:21:21.554Z,78.63
2023-03-03T17:24:02.671Z,78.89
2023-03-03T17:26:58.596Z,78.85
2023-03-03T17:29:42.879Z,79.12
2023-03-03T17:32:26.229Z,79.12
2023-03-03T17:35:15.030Z,79.27
2023-03-03T17:37:55.088Z,79.63
2023-03-03T17:40:40.354Z,79.29
2023-03-03T17:43:16.346Z,79.53
2023-03-03T17:45:51.070Z,80.07
2023-03-03T17:48:43.295Z,80.12
2023-03-03T17:51:41.103Z,80.01
2023-03-03T17:54:21.450Z,79.85
2023-03-03T17:57:00.776Z,79.88
2023-03-03T17:59:59.732Z,80.19
2023-03-03T18:02:47.094Z,80.28
2023-03-03T18:05:38.685Z,80.54
2023-03-03T18:08:26.951Z,80.79
2023-03-03T18:11:14.989Z,80.85
2023-03-03T18:14:13.254Z,81.17
2023-03-03T18:17:04.317Z,81.25
2023-03-03T18:19:56.514Z,81.50
2023-03-03T18:22:32.111Z,81.50
2023-03-03T18:25:12.156Z,81.73
2023-03-03T18:27:43.862Z,81.78
2023-03-03T18:30:54.168Z,81.88
2023-03-03T18:33:43.191Z,82.07
2023-03-03T18:36:37.368Z,81.95
2023-03-03T18:39:14.803Z,82.13
2023-03-03T18:42:06.745Z,82.04
2023-03-03T18:44:37.413Z,81.77
2023-03-03T18:47:08.248Z,82.02
2023-03-03T18:50:15.461Z,81.90
2023-03-03T18:53:16.390Z,81.81
2023-03-03T18:55:48.472Z,81.77
2023-03-03T18:58:34.573Z,81.86
2023-03-03T19:01:34.849Z,82.11
2023-03-03T19:04:24.881Z,81.90
2023-03-03T19:07:14.923Z,81.97
2023-03-03T19:09:56.704Z,82.05
2023-03-03T19:12:45.279Z,81.85
2023-03-03T19:15:50.348Z,81.87
2023-03-03T19:18:27.301Z,81.86
2023-03-03T19:21:01.222Z,81.86
2023-03-03T19:23:53.228Z,81.96
2023-03-03T19:26:55.466Z,82.10
2023-03-03T19:29:50.113Z,82.29
2023-03-03T19:32:38.256Z,82.43
2023-03-03T19:35:23.886Z,82.29
2023-03-03T19:38:05.808Z,82.24
2023-03-03T19:40:46.857Z,82.13
2023-03-03T19:43:31.432Z,82.17
2023-03-03T19:46:16.129Z,82.23
2023-03-03T19:48:55.054Z,82.23
2023-03-03T19:51:33.781Z,82.32
2023-03-03T19:54:18.145Z,82.18
2023-03-03T19:56:51.677Z,82.21
2023-03-03T19:59:33.349Z,82.37
2023-03-03T20:02:28.829Z,81.90
2023-03-03T20:05:16.783Z,82.24
2023-03-03T20:07:56.056Z,82.35
2023-03-03T20:10:44.586Z,82.31
2023-03-03T20:13:37.433Z,82.37
2023-03-03T20:16:19.516Z,82.33
2023-03-03T20:19:11.505Z,82.09
2023-03-03T20:21:50.090Z,82.26
2023-03-03T20:24:37.852Z,82.10
2023-03-03T20:27:14.856Z,82.19
2023-03-03T20:30:08.333Z,82.12
2023-03-03T20:32:53.800Z,81.96
2023-03-03T20:35:34.180Z,81.88
2023-03-03T20:38:17.709Z,81.60
2023-03-03T20:40:54.499Z,81.86
2023-03-03T20:43:44.347Z,81.83
2023-03-03T20:46:22.207Z,81.74
2023-03-03T20:49:08.180Z,81.70
2023-03-03T20:51:44.546Z,81.87
2023-03-03T20:54:25.832Z,81.59
2023-03-03T20:57:03.892Z,81.71
2023-03-03T20:59:35.002Z,81.83
2023-03-03T21:02:17.026Z,81.72
2023-03-03T21:04:47.547Z,81.72
2023-03-03T21:07:28.143Z,81.70
2023-03-03T21:10:15.225Z,81.64
2023-03-03T21:12:45.882Z,81.68
2023-03-03T21:15:28.181Z,81.66
2023-03-03T21:17:59.604Z,81.48
2023-03-03T21:20:33.052Z,81.66
2023-03-03T21:23:04.331Z,81.68
2023-03-03T21:25:53.207Z,81.57
2023-03-03T21:28:26.576Z,81.76
2023-03-03T21:31:08.545Z,81.45
2023-03-03T21:33:54.212Z,81.54
2023-03-03T21:36:44.814Z,81.27
2023-03-03T21:39:27.865Z,81.20
2023-03-03T21:42:00.610Z,81.23
2023-03-03T21:44:40.497Z,81.09
2023-03-03T21:47:14.673Z,80.96
2023-03-03T21:49:47.645Z,81.07
2023-03-03T21:52:21.187Z,81.07
2023-03-03T21:54:52.824Z,81.09
2023-03-03T21:57:23.252Z,80.90
2023-03-03T21:59:54.180Z,81.15
2023-03-03T22:02:24.833Z,81.38
2023-03-03T22:04:55.415Z,81.20
2023-03-03T22:07:26.236Z,81.42
2023-03-03T22:09:56.842Z,81.40
2023-03-03T22:12:27.223Z,81.50
2023-03-03T22:14:57.511Z,81.46
2023-03-03T22:17:28.139Z,81.40
2023-03-03T22:19:58.676Z,81.43
2023-03-03T22:22:29.248Z,81.39
2023-03-03T22:25:00.467Z,81.68
2023-03-03T22:27:31.149Z,81.58
2023-03-03T22:30:02.179Z,81.38
2023-03-03T22:32:32.626Z,81.61
2023-03-03T22:35:03.011Z,81.73
2023-03-03T22:37:33.279Z,81.75
2023-03-03T22:40:03.702Z,81.84
2023-03-03T22:42:34.220Z,81.95
2023-03-03T22:45:05.183Z,82.09
2023-03-03T22:47:35.863Z,82.03
2023-03-03T22:50:07.438Z,81.96
2023-03-03T22:52:38.254Z,81.86
2023-03-03T22:55:10.982Z,81.95
2023-03-03T22:57:41.410Z,82.17
2023-03-03T23:00:14.156Z,81.77
2023-03-03T23:02:44.890Z,81.88
2023-03-03T23:05:15.275Z,82.03
2023-03-03T23:07:45.963Z,82.43
2023-03-03T23:10:16.503Z,81.99
2023-03-03T23:12:46.871Z,82.30
2023-03-03T23:15:17.249Z,82.40
2023-03-03T23:17:48.864Z,82.36
2023-03-03T23:20:21.999Z,82.67
2023-03-03T23:22:52.703Z,82.94
2023-03-03T23:25:23.985Z,82.91
2023-03-03T23:27:55.990Z,83.13
2023-03-03T23:30:26.346Z,83.13
2023-03-03T23:32:57.183Z,83.57
2023-03-03T23:35:27.687Z,83.49
2023-03-03T23:37:58.359Z,83.64
2023-03-03T23:40:29.163Z,83.83
2023-03-03T23:43:00.065Z,84.21
2023-03-03T23:45:30.666Z,83.89
2023-03-03T23:48:00.954Z,83.78
2023-03-03T23:50:33.068Z,84.00
2023-03-03T23:53:03.724Z,83.84
2023-03-03T23:55:34.410Z,84.03
2023-03-03T23:58:04.778Z,83.79
